TimeCDT,TemperatureF,Dew PointF,Humidity,Sea Level PressureIn,VisibilityMPH,Wind Direction,Wind SpeedMPH,Gust SpeedMPH,PrecipitationIn,Events,Conditions,WindDirDegrees,DateUTC
12:53 AM,52.0,48.9,89,30.26,10.0,North,3.5,-,N/A,,Clear,350,2013-10-14 05:53:00
1:53 AM,51.1,48.0,89,30.26,10.0,North,5.8,-,N/A,,Clear,360,2013-10-14 06:53:00
2:53 AM,51.1,48.0,89,30.25,10.0,North,4.6,-,N/A,,Clear,10,2013-10-14 07:53:00
3:53 AM,50.0,48.0,93,30.24,10.0,North,4.6,-,N/A,,Clear,360,2013-10-14 08:53:00
4:53 AM,51.1,48.0,89,30.24,10.0,NNE,3.5,-,N/A,,Clear,30,2013-10-14 09:53:00
5:53 AM,50.0,48.0,93,30.25,10.0,North,3.5,-,N/A,,Clear,10,2013-10-14 10:53:00
6:53 AM,50.0,48.0,93,30.25,10.0,NNE,3.5,-,N/A,,Clear,20,2013-10-14 11:53:00
7:53 AM,53.1,50.0,89,30.25,10.0,Calm,Calm,-,N/A,,Clear,0,2013-10-14 12:53:00
8:53 AM,61.0,50.0,67,30.25,10.0,ENE,6.9,-,N/A,,Clear,60,2013-10-14 13:53:00
9:53 AM,66.0,52.0,60,30.24,10.0,East,9.2,-,N/A,,Clear,90,2013-10-14 14:53:00
10:53 AM,71.1,57.0,61,30.22,10.0,ESE,6.9,-,N/A,,Clear,110,2013-10-14 15:53:00
11:53 AM,75.9,60.1,58,30.20,10.0,ESE,5.8,-,N/A,,Clear,110,2013-10-14 16:53:00
12:53 PM,78.1,59.0,52,30.16,10.0,ESE,9.2,-,N/A,,Clear,110,2013-10-14 17:53:00
1:53 PM,77.0,59.0,54,30.13,10.0,ESE,8.1,-,N/A,,Clear,110,2013-10-14 18:53:00
2:53 PM,77.0,59.0,54,30.12,10.0,SE,5.8,-,N/A,,Clear,140,2013-10-14 19:53:00
3:53 PM,77.0,59.0,54,30.09,10.0,ESE,4.6,-,N/A,,Clear,120,2013-10-14 20:53:00
4:53 PM,75.9,61.0,60,30.08,10.0,Calm,Calm,-,N/A,,Clear,0,2013-10-14 21:53:00
5:53 PM,73.0,62.1,68,30.08,10.0,Calm,Calm,-,N/A,,Clear,0,2013-10-14 22:53:00
6:53 PM,71.1,62.1,73,30.09,10.0,Calm,Calm,-,N/A,,Clear,0,2013-10-14 23:53:00
7:53 PM,69.1,62.1,78,30.08,10.0,East,4.6,-,N/A,,Clear,80,2013-10-15 00:53:00
8:53 PM,68.0,62.1,81,30.09,10.0,East,4.6,-,N/A,,Clear,100,2013-10-15 01:53:00
9:53 PM,68.0,61.0,78,30.09,10.0,ESE,4.6,-,N/A,,Clear,110,2013-10-15 02:53:00
10:53 PM,66.9,61.0,81,30.08,10.0,ESE,4.6,-,0.00,Rain,Light Rain,120,2013-10-15 03:53:00
11:53 PM,68.0,61.0,78,30.07,10.0,ESE,6.9,-,0.00,,Clear,120,2013-10-15 04:53:00